• Join FlightAware (Why Join?)
  • Login
  • US Flag 
10:13AM EDT


 

Airport Tracker/Info


-or-


 

Live Flight TrackerFlight Track Log ✈ EJA122 ✈ 05-Nov-2013 ✈ KDAL - KMRF

Flight Track Log - Related Links

Times and Time Zones

All times are in EST time to prevent confusion due to time zone crossing. See the EJA122 flight status page for this flight to view local times or setup timezone preferences in your user account.

Time Position Orientation Groundspeed Altitude Reporting Facility
EST Latitude Longitude Course Direction KTS MPH feet Rate Location/Type
12:24PM 32.8333 -96.8333 140° Southeast 166 191 1,300  Level Dallas / Fort Worth TRACON
12:25PM 32.7833 -96.7833 140° Southeast 221 254 5,000 2,700 Climbing Dallas / Fort Worth TRACON
12:26PM 32.7167 -96.7833 180° South 250 288 7,900 2,220 Climbing Dallas / Fort Worth TRACON
12:29PM 32.6425 -96.9519 242° Southwest 257 296 12,200 1,800 Climbing Fort Worth Center
12:30PM 32.6511 -97.0581 276° West 297 342 13,800 1,440 Climbing Fort Worth Center
12:31PM 32.6597 -97.1642 276° West 324 373 15,100 1,320 Climbing Fort Worth Center
12:32PM 32.6683 -97.2606 276° West 331 381 16,500 1,440 Climbing Fort Worth Center
12:33PM 32.6789 -97.3814 276° West 331 381 18,000 1,380 Climbing Fort Worth Center
12:34PM 32.6850 -97.4800 253° West 331 381 19,300 1,440 Climbing Fort Worth Center
12:35PM 32.6956 -97.6011 276° West 331 381 20,900 1,500 Climbing Fort Worth Center
12:36PM 32.7014 -97.7022 274° West 336 387 22,300 1,380 Climbing Fort Worth Center
12:37PM 32.7117 -97.8158 276° West 341 392 23,700 1,200 Climbing Fort Worth Center
12:38PM 32.7217 -97.9269 276° West 347 399 24,700 1,200 Climbing Fort Worth Center
12:39PM 32.7211 -98.0356 270° West 347 399 26,100 1,320 Climbing Fort Worth Center
12:40PM 32.7103 -98.1417 263° West 342 394 27,400 1,140 Climbing Fort Worth Center
12:41PM 32.6992 -98.2453 263° West 331 381 28,400 960 Climbing Fort Worth Center
12:42PM 32.6836 -98.3489 260° West 331 381 29,400 960 Climbing Fort Worth Center
12:43PM 32.6683 -98.4572 261° West 326 375 30,400 900 Climbing Fort Worth Center
12:44PM 32.6569 -98.5583 262° West 316 364 31,300 840 Climbing Fort Worth Center
12:45PM 32.6414 -98.6617 260° West 316 364 32,100 720 Climbing Fort Worth Center
12:46PM 32.6236 -98.7603 258° West 311 358 32,800 720 Climbing Fort Worth Center
12:47PM 32.5892 -98.8533 246° West 311 358 33,600 600 Climbing Fort Worth Center
12:48PM 32.5525 -98.9514 246° West 316 364 34,000 180 Climbing Fort Worth Center
12:49PM 32.5158 -99.0517 247° West 321 369 34,000  Level Fort Worth Center
12:50PM 32.4767 -99.1544 246° West 333 383 34,000  Level Fort Worth Center
12:51PM 32.4378 -99.2594 246° West 344 396 34,000  Level Fort Worth Center
12:52PM 32.3964 -99.3669 246° West 355 409 34,000  Level Fort Worth Center
12:53PM 32.3550 -99.4742 245° Southwest 355 409 34,000  Level Fort Worth Center
12:54PM 32.3114 -99.5839 245° Southwest 355 409 34,000  Level Fort Worth Center
12:55PM 32.2719 -99.6886 246° West 355 409 34,000  Level Fort Worth Center
12:56PM 32.2303 -99.7981 246° West 355 409 34,000  Level Fort Worth Center
12:57PM 32.1886 -99.9050 245° Southwest 355 409 34,000  Level Fort Worth Center
12:58PM 32.1467 -100.0142 246° West 355 409 34,000  Level Fort Worth Center
12:59PM 32.1047 -100.1208 245° Southwest 360 414 34,000  Level Fort Worth Center
01:00PM 32.0692 -100.2156 246° West 360 414 34,000  Level Fort Worth Center
01:01PM 32.0272 -100.3244 246° West 360 414 34,000  Level Fort Worth Center
01:02PM 31.9850 -100.4308 245° Southwest 355 409 34,000  Level Fort Worth Center
01:03PM 31.9428 -100.5347 244° Southwest 355 409 34,000  Level Fort Worth Center
01:04PM 31.8981 -100.6506 246° West 355 409 34,000  Level Fort Worth Center
01:05PM 31.8644 -100.7425 247° West 355 409 34,000  Level Fort Worth Center
01:06PM 31.8197 -100.8483 244° Southwest 355 409 34,000  Level Fort Worth Center
01:07PM 31.7792 -100.9544 246° West 355 409 34,000  Level Fort Worth Center
01:08PM 31.7386 -101.0603 246° West 355 409 34,000  Level Fort Worth Center
01:09PM 31.6958 -101.1661 245° Southwest 355 409 34,000  Level Fort Worth Center
01:11PM 31.6039 -101.3944 245° Southwest 355 409 34,000  Level Houston Center
01:12PM 31.5528 -101.5208 245° Southwest 357 411 34,000  Level Houston Center
01:14PM 31.4675 -101.7281 244° Southwest 356 410 34,000  Level Albuquerque Center
01:15PM 31.4161 -101.8542 245° Southwest 358 412 34,000  Level Albuquerque Center
01:16PM 31.3764 -101.9514 244° Southwest 358 412 34,000  Level Albuquerque Center
01:17PM 31.3342 -102.0547 244° Southwest 356 410 34,000  Level Albuquerque Center
01:18PM 31.2922 -102.1572 244° Southwest 352 405 34,000  Level Albuquerque Center
01:19PM 31.2453 -102.2647 243° Southwest 361 415 34,000 -300 Level Albuquerque Center
01:20PM 31.1894 -102.3914 243° Southwest 370 426 33,400 -840 Descending Albuquerque Center
01:21PM 31.1358 -102.4886 237° Southwest 360 414 32,300 -1,080 Descending Albuquerque Center
01:22PM 31.0844 -102.5789 236° Southwest 350 403 31,200 -1,020 Descending Albuquerque Center
01:23PM 31.0303 -102.6722 236° Southwest 348 400 30,200 -1,380 Descending Albuquerque Center
01:24PM 30.9614 -102.7900 236° Southwest 361 415 28,400 -1,800 Descending Albuquerque Center
01:25PM 30.9053 -102.8881 236° Southwest 364 419 26,500 -1,860 Descending Albuquerque Center
01:26PM 30.8450 -102.9886 235° Southwest 373 429 24,600 -1,860 Descending Albuquerque Center
01:27PM 30.7853 -103.0914 236° Southwest 381 438 22,700 -1,860 Descending Albuquerque Center
01:28PM 30.7278 -103.1936 237° Southwest 380 437 20,800 -1,860 Descending Albuquerque Center
01:29PM 30.6675 -103.2931 235° Southwest 377 434 18,900 -2,100 Descending Albuquerque Center
01:30PM 30.5975 -103.4100 235° Southwest 371 427 16,500 -2,100 Descending Albuquerque Center
01:32PM 30.5400 -103.5083 236° Southwest 368 423 14,600 -1,800 Descending Albuquerque Center
01:33PM 30.4828 -103.6061 236° Southwest 369 425 12,800 -1,680 Descending Albuquerque Center
01:34PM 30.4358 -103.6875 236° Southwest 327 376 11,200 -1,680 Descending Albuquerque Center
01:35PM 30.3942 -103.7622 237° Southwest 294 338 9,400 -1,800 Descending Albuquerque Center